Bunch, OK

11:03 AM CDT on July 30, 2014 (GMT -0500)
Sallisaw Municipal (KJSV) Elev 528 ft | 35.44 °N, 94.80 °W | Change Station

Current weather conditions updated 8 minutes ago

Light Drizzle
Light Drizzle
73 °F
Feels Like 73 °F
N
0
Wind Variable Wind from North

Today is forecast to be Much Cooler than yesterday. Thunderstorms.

Today
High -- | Low -- °F
--% Chance of Precip.
Yesterday
High -- | Low -- °F
Precip. -- in
6:25 AM 8:24 PM
Waxing Crescent, 12% visible
Pressure 30.12 in
Visibility 10.0 miles
Clouds Scattered Clouds 1200 ft
Scattered Clouds 2400 ft
Mostly Cloudy 3000 ft
Dew Point 68 °F
Humidity 83%
Rainfall 0.00 in
Snow Depth Not available.
UV 4 out of 12
Pollen 1.70 out of 12
Air Quality Not available.
Flu Activity Not available.
METAR KJSV 301555Z AUTO 00000KT 10SM -DZ SCT012 SCT024 BKN030 23/20 A3012 RMK AO2

More Conditions Fewer Conditions

Pressure 30.12 in
Visibility 10.0 miles
Clouds Scattered Clouds 1200 ft
Scattered Clouds 2400 ft
Mostly Cloudy 3000 ft
Dew Point 68 °F
Humidity 83%
Rainfall 0.00 in
Snow Depth Not available.
UV 4 out of 12
Pollen 1.70 out of 12
Air Quality Not available.
Flu Activity Not available.
METAR KJSV 301555Z AUTO 00000KT 10SM -DZ SCT012 SCT024 BKN030 23/20 A3012 RMK AO2

More Conditions Fewer Conditions

10-Day Weather Forecast

Almanac

Astronomy

Jul. 30, 2014 Rise Set
Actual Time 6:25 AM CDT 8:24 PM CDT
Civil Twilight 5:57 AM CDT 8:53 PM CDT
Nautical Twilight 5:22 AM CDT 9:27 PM CDT
Astronomical Twilight 4:45 AM CDT 10:04 PM CDT
Moon 9:49 AM CDT 10:17 PM CDT
Length of Visible Light 14h 56m
Length of Day
13h 59m
Tomorrow will be 1m 39s shorter.
Waxing Crescent, 12% of the Moon is Illuminated
Today
Waxing Crescent
Aug 3
First Quarter
Aug 10
Full
Aug 17
Last Quarter
Aug 25
New

Today's Extremes

State Highs State Lows

Community

WunderPhotos

Upload Photos

1,739,125 photos uploaded!

WunderBlogs® & News

By Dr. Jeff Masters
Director of Meteorology, Weather Underground
By Kari Strenfel
Meteorologist, Weather Underground
By Christopher C. Burt
Weather Historian, Weather Underground
July 30, 2014
July 30, 2014
July 30, 2014

Nearby

Snow Depth

Station Depth Elevation
No new snow has been reported.

Earthquake Activity

City Distance Mag. Time & Date
No recent earthquake activity has been reported nearby.
Minimum magnitude displayed is 2.5.

Coastal Water Temperatures

Place Temperature
No Stations Reporting

Nearby Weather Stations

Station Location Temp. Heat Index Dew Point Humidity Wind Precip. Elev Updated Type
Tenkiller Harbor, Park Hill, OK 73.9 °F 75 °F 66 °F 77% West  at  3.5 mph 0.00 in / hr 751 ft 11:02 AM CDT Rapid Fire
MesoWest VIANN , Vian, OK 73 °F 71 °F - - North  at  - 0.00 in / hr 518 ft 9:15 AM CDT MADIS

Show More Stations Show Fewer Stations